createdAt,value
2018-09-19T00:02:31.862Z,99.90
2018-09-19T00:07:34.406Z,99.90
2018-09-19T00:12:36.943Z,99.90
2018-09-19T00:17:39.571Z,99.90
2018-09-19T00:22:42.083Z,99.90
2018-09-19T00:27:44.754Z,99.90
2018-09-19T00:32:47.581Z,99.90
2018-09-19T00:37:50.131Z,99.90
2018-09-19T00:42:52.673Z,99.90
2018-09-19T00:47:55.200Z,99.90
2018-09-19T00:52:57.844Z,99.90
2018-09-19T00:58:00.446Z,99.90
2018-09-19T01:03:02.993Z,99.90
2018-09-19T01:08:05.785Z,99.90
2018-09-19T01:13:08.376Z,99.90
2018-09-19T01:18:10.918Z,99.90
2018-09-19T01:23:13.471Z,99.90
2018-09-19T01:28:16.013Z,99.90
2018-09-19T01:33:18.524Z,99.90
2018-09-19T01:38:21.072Z,99.90
2018-09-19T01:43:23.626Z,99.90
2018-09-19T01:48:26.670Z,99.90
2018-09-19T01:53:29.190Z,99.90
2018-09-19T01:58:31.746Z,99.90
2018-09-19T02:03:34.313Z,99.90
2018-09-19T02:08:36.880Z,99.90
2018-09-19T02:13:39.420Z,99.90
2018-09-19T02:18:42.039Z,99.90
2018-09-19T02:23:44.648Z,99.90
2018-09-19T02:28:47.304Z,99.90
2018-09-19T02:33:49.897Z,99.90
2018-09-19T02:38:54.170Z,99.90
2018-09-19T02:43:56.702Z,99.90
2018-09-19T02:48:59.447Z,99.90
2018-09-19T02:54:01.976Z,99.90
2018-09-19T02:59:04.531Z,99.90
2018-09-19T03:04:07.054Z,99.90
2018-09-19T03:09:09.577Z,99.90
2018-09-19T03:14:12.141Z,99.90
2018-09-19T03:19:14.656Z,99.90
2018-09-19T03:24:17.185Z,99.90
2018-09-19T03:29:19.756Z,99.90
2018-09-19T03:34:22.263Z,99.90
2018-09-19T03:39:24.802Z,99.90
2018-09-19T03:44:27.358Z,99.90
2018-09-19T03:49:29.917Z,99.90
2018-09-19T03:54:32.512Z,99.90
2018-09-19T03:59:35.011Z,99.90
2018-09-19T04:04:37.793Z,99.90
2018-09-19T04:09:40.317Z,99.90
2018-09-19T04:14:42.886Z,99.90
2018-09-19T04:19:45.383Z,99.90
2018-09-19T04:24:47.998Z,99.90
2018-09-19T04:29:50.539Z,99.90
2018-09-19T04:34:53.175Z,99.90
2018-09-19T04:39:55.936Z,99.90
2018-09-19T04:44:58.582Z,99.90
2018-09-19T04:50:01.983Z,99.90
2018-09-19T04:55:05.571Z,99.90
2018-09-19T05:00:08.111Z,99.90
2018-09-19T05:05:10.680Z,99.90
2018-09-19T05:10:13.312Z,99.90
2018-09-19T05:15:15.842Z,99.90
2018-09-19T05:20:18.367Z,99.90
2018-09-19T05:25:20.902Z,99.90
2018-09-19T05:30:23.452Z,99.90
2018-09-19T05:35:25.986Z,99.90
2018-09-19T05:40:28.695Z,99.90
2018-09-19T05:45:31.230Z,99.90
2018-09-19T05:50:34.049Z,99.90
2018-09-19T05:55:36.635Z,99.90
2018-09-19T06:00:39.227Z,99.90
2018-09-19T06:05:41.857Z,99.90
2018-09-19T06:10:44.401Z,99.90
2018-09-19T06:15:46.931Z,99.90
2018-09-19T06:20:49.796Z,99.90
2018-09-19T06:25:52.359Z,99.90
2018-09-19T06:30:55.033Z,99.90
2018-09-19T06:35:57.601Z,99.90
2018-09-19T06:41:00.323Z,99.90
2018-09-19T06:46:02.856Z,99.90
2018-09-19T06:51:05.473Z,99.90
2018-09-19T06:56:08.166Z,99.90
2018-09-19T07:01:10.718Z,99.90
2018-09-19T07:06:13.419Z,99.90
2018-09-19T07:11:16.110Z,99.90
2018-09-19T07:16:18.641Z,99.90
2018-09-19T07:21:21.304Z,99.90
2018-09-19T07:26:23.912Z,99.90
2018-09-19T07:31:26.458Z,99.90
2018-09-19T07:36:28.985Z,99.90
2018-09-19T07:41:31.640Z,99.90
2018-09-19T07:46:34.243Z,99.90
2018-09-19T07:51:36.777Z,99.90
2018-09-19T07:56:39.313Z,99.90
2018-09-19T08:01:41.861Z,99.90
2018-09-19T08:06:44.392Z,99.90
2018-09-19T08:11:46.945Z,99.90
2018-09-19T08:16:49.632Z,99.90
2018-09-19T08:21:52.231Z,98.30
2018-09-19T08:26:55.308Z,97.00
2018-09-19T08:31:57.849Z,91.10
2018-09-19T08:37:00.748Z,86.00
2018-09-19T08:42:03.433Z,77.70
2018-09-19T08:47:06.139Z,72.30
2018-09-19T08:52:09.197Z,68.00
2018-09-19T08:57:12.532Z,60.90
2018-09-19T09:02:15.104Z,58.30
2018-09-19T09:07:18.437Z,60.00
2018-09-19T09:12:21.162Z,59.10
2018-09-19T09:17:23.618Z,59.90
2018-09-19T09:22:26.160Z,58.30
2018-09-19T09:27:29.029Z,53.60
2018-09-19T09:32:31.484Z,51.00
2018-09-19T09:37:34.340Z,50.10
2018-09-19T09:42:36.884Z,47.50
2018-09-19T09:47:39.424Z,45.30
2018-09-19T09:52:42.112Z,41.90
2018-09-19T09:57:45.762Z,38.20
2018-09-19T10:02:48.396Z,37.20
2018-09-19T10:07:50.992Z,35.80
2018-09-19T10:12:53.815Z,36.90
2018-09-19T10:17:56.427Z,37.00
2018-09-19T10:22:58.954Z,36.20
2018-09-19T10:28:01.507Z,34.10
2018-09-19T10:33:04.048Z,35.50
2018-09-19T10:38:06.664Z,36.40
2018-09-19T10:43:09.235Z,36.20
2018-09-19T10:48:11.987Z,35.20
2018-09-19T10:53:14.516Z,35.10
2018-09-19T10:58:17.078Z,34.30
2018-09-19T11:03:19.720Z,34.60
2018-09-19T11:08:22.366Z,35.30
2018-09-19T11:13:24.920Z,32.20
2018-09-19T11:18:27.521Z,30.70
2018-09-19T11:23:30.151Z,31.40
2018-09-19T11:28:32.726Z,32.00
2018-09-19T11:33:35.334Z,31.20
2018-09-19T11:38:37.888Z,30.00
2018-09-19T11:43:40.523Z,30.70
2018-09-19T11:48:43.048Z,30.70
2018-09-19T11:53:45.599Z,29.90
2018-09-19T11:58:48.212Z,28.60
2018-09-19T12:03:50.761Z,27.70
2018-09-19T12:08:53.313Z,26.30
2018-09-19T12:13:55.969Z,26.10
2018-09-19T12:18:58.616Z,26.30
2018-09-19T12:24:01.213Z,24.70
2018-09-19T12:29:03.870Z,25.10
2018-09-19T12:34:06.551Z,25.40
2018-09-19T12:39:10.289Z,25.20
2018-09-19T12:44:12.886Z,25.30
2018-09-19T12:49:15.632Z,24.10
2018-09-19T12:54:18.228Z,24.60
2018-09-19T12:59:21.011Z,24.10
2018-09-19T13:04:23.574Z,25.80
2018-09-19T13:09:26.254Z,24.20
2018-09-19T13:14:28.868Z,23.10
2018-09-19T13:19:31.455Z,23.40
2018-09-19T13:24:34.729Z,22.60
2018-09-19T13:29:37.328Z,22.00
2018-09-19T13:34:39.916Z,21.40
2018-09-19T13:39:42.524Z,24.00
2018-09-19T13:44:45.427Z,25.60
2018-09-19T13:49:54.716Z,23.10
2018-09-19T13:54:57.377Z,23.00
2018-09-19T14:00:00.911Z,23.90
2018-09-19T14:05:03.658Z,23.30
2018-09-19T14:10:06.233Z,22.50
2018-09-19T14:15:08.832Z,22.60
2018-09-19T14:20:11.496Z,26.00
2018-09-19T14:25:14.143Z,29.90
2018-09-19T14:30:16.807Z,33.00
2018-09-19T14:35:19.602Z,34.40
2018-09-19T14:40:22.281Z,35.50
2018-09-19T14:45:24.878Z,36.40
2018-09-19T14:50:27.579Z,37.10
2018-09-19T14:55:30.466Z,35.50
2018-09-19T15:00:33.007Z,33.20
2018-09-19T15:05:35.522Z,31.20
2018-09-19T15:10:38.095Z,28.20
2018-09-19T15:15:40.804Z,25.10
2018-09-19T15:20:43.361Z,24.40
2018-09-19T15:25:46.083Z,23.90
2018-09-19T15:30:48.726Z,24.10
2018-09-19T15:35:51.270Z,23.10
2018-09-19T15:40:53.842Z,22.60
2018-09-19T15:45:56.393Z,24.00
2018-09-19T15:50:59.003Z,24.00
2018-09-19T15:56:02.121Z,25.00
2018-09-19T16:01:04.897Z,23.90
2018-09-19T16:06:07.501Z,24.20
2018-09-19T16:11:10.033Z,23.30
2018-09-19T16:16:13.426Z,24.10
2018-09-19T16:21:15.981Z,25.70
2018-09-19T16:26:18.597Z,24.80
2018-09-19T16:31:22.041Z,26.40
2018-09-19T16:36:25.117Z,27.40
2018-09-19T16:41:27.735Z,29.20
2018-09-19T16:46:30.428Z,32.70
2018-09-19T16:51:33.256Z,38.90
2018-09-19T16:56:35.784Z,44.80
2018-09-19T17:01:38.732Z,49.30
2018-09-19T17:06:41.333Z,52.70
2018-09-19T17:11:43.852Z,59.00
2018-09-19T17:16:46.404Z,59.50
2018-09-19T17:21:48.987Z,62.40
2018-09-19T17:26:51.685Z,66.00
2018-09-19T17:31:54.323Z,72.80
2018-09-19T17:36:56.926Z,80.20
2018-09-19T17:41:59.467Z,87.90
2018-09-19T17:47:02.088Z,92.20
2018-09-19T17:52:04.793Z,93.90
2018-09-19T17:57:08.043Z,95.70
2018-09-19T18:02:10.660Z,99.00
2018-09-19T18:07:13.217Z,99.70
2018-09-19T18:12:15.774Z,99.90
2018-09-19T18:17:18.338Z,99.90
2018-09-19T18:22:20.971Z,99.90
2018-09-19T18:27:23.960Z,99.90
2018-09-19T18:32:27.377Z,99.90
2018-09-19T18:37:29.976Z,99.90
2018-09-19T18:42:32.593Z,99.90
2018-09-19T18:47:35.205Z,99.90
2018-09-19T18:52:37.800Z,99.90
2018-09-19T18:57:40.375Z,99.90
2018-09-19T19:02:42.949Z,99.90
2018-09-19T19:07:45.612Z,99.90
2018-09-19T19:12:48.189Z,99.90
2018-09-19T19:17:50.848Z,99.90
2018-09-19T19:22:53.452Z,99.90
2018-09-19T19:27:56.023Z,99.90
2018-09-19T19:32:58.591Z,99.90
2018-09-19T19:38:01.168Z,99.90
2018-09-19T19:43:03.789Z,99.90
2018-09-19T19:48:06.374Z,99.90
2018-09-19T19:53:09.045Z,99.90
2018-09-19T19:58:11.627Z,99.90
2018-09-19T20:03:14.276Z,99.90
2018-09-19T20:08:16.821Z,99.90
2018-09-19T20:13:19.558Z,99.90
2018-09-19T20:18:22.366Z,99.90
2018-09-19T20:23:24.883Z,99.90
2018-09-19T20:28:27.411Z,99.90
2018-09-19T20:33:30.007Z,99.90
2018-09-19T20:38:32.497Z,99.90
2018-09-19T20:43:35.028Z,99.90
2018-09-19T20:48:37.668Z,99.90
2018-09-19T20:53:40.177Z,99.90
2018-09-19T20:58:42.754Z,99.90
2018-09-19T21:03:45.331Z,99.90
2018-09-19T21:08:47.848Z,99.90
2018-09-19T21:13:50.350Z,99.90
2018-09-19T21:18:52.965Z,99.90
2018-09-19T21:23:55.587Z,99.90
2018-09-19T21:28:58.160Z,99.90
2018-09-19T21:34:00.974Z,99.90
2018-09-19T21:39:05.591Z,99.90
2018-09-19T21:44:08.155Z,99.90
2018-09-19T21:49:10.699Z,99.90
2018-09-19T21:54:13.227Z,99.90
2018-09-19T21:59:15.871Z,99.90
2018-09-19T22:04:18.404Z,99.90
2018-09-19T22:09:21.012Z,99.90
2018-09-19T22:14:23.555Z,99.90
2018-09-19T22:19:26.088Z,99.90
2018-09-19T22:24:28.663Z,99.90
2018-09-19T22:29:31.204Z,99.90
2018-09-19T22:34:33.743Z,99.90
2018-09-19T22:39:36.303Z,99.90
2018-09-19T22:44:38.888Z,99.90
2018-09-19T22:49:41.453Z,99.90
2018-09-19T22:54:43.971Z,99.90
2018-09-19T22:59:47.200Z,99.90
2018-09-19T23:04:49.734Z,99.90
2018-09-19T23:09:52.255Z,99.90
2018-09-19T23:14:54.850Z,99.90
2018-09-19T23:19:57.406Z,99.90
2018-09-19T23:24:59.940Z,99.90
2018-09-19T23:30:02.524Z,99.90
2018-09-19T23:35:05.095Z,99.90
2018-09-19T23:40:07.685Z,99.90
2018-09-19T23:45:10.240Z,99.90
2018-09-19T23:50:12.766Z,99.90
2018-09-19T23:55:16.274Z,99.90
